Columbus, Ohio
Traffic Map
Current Weather Conditions
Columbus, Ohio
Broken Clouds
Broken Clouds
57°
Feels Like: 57°
Wind Chill: 57° Ceiling: 20000
Heat Index: 57° Visibility: 9mi
Dew Point: 52° Wind: 0mph
Humidity: 83% Direction: ° ()
Pressure: 30.14in Gusts: 0mph
Raw Report DataKCMH 251051Z 00000KT 9SM SCT140 BKN200 14/11 A3014 RMK AO2 SLP200 T01390111
Traffic Incident Summary
Active as of:
Severity:
Category:
InformationThere was an issue retrieving the traffic information for this location. Please try a different location or try again shortly.
Advertisements
Track Severe Weather on mobile